Terminal Aerodrome Forecast
Issued by NWS

Home | Current Version | Previous Version | Text Only | Print | Product List | Glossary On
Versions: 1 2 3 4 5 6 7 8 9 10 11 12 13
000
FTUS45 KGJT 191747
TAFMTJ
TAF
KMTJ 191747Z 1918/2018 15005KT P6SM SCT060
     FM192000 31008KT P6SM VCSH BKN030
     FM200100 14005KT 5SM -RASN BKN020
     FM200700 16004KT 3SM -SN BKN015
     FM201200 19004KT P6SM VCSH BKN025=

USA.gov is the U.S. government's official web portal to all federal, state and local government web resources and services.